sensor_id;sensor_type;location;lat;lon;timestamp;pressure;altitude;pressure_sealevel;temperature
61595;BMP280;47397;48.194;11.632;2022-07-24T00:00:55;96336.06;;;21.29
61595;BMP280;47397;48.194;11.632;2022-07-24T00:01:55;96340.06;;;21.18
61595;BMP280;47397;48.194;11.632;2022-07-24T00:02:55;96343.28;;;21.24
61595;BMP280;47397;48.194;11.632;2022-07-24T00:03:56;96348.91;;;21.00
61595;BMP280;47397;48.194;11.632;2022-07-24T00:04:56;96343.34;;;20.92
61595;BMP280;47397;48.194;11.632;2022-07-24T00:05:57;96344.38;;;20.89
61595;BMP280;47397;48.194;11.632;2022-07-24T00:06:57;96340.78;;;20.76
61595;BMP280;47397;48.194;11.632;2022-07-24T00:07:58;96351.72;;;20.81
61595;BMP280;47397;48.194;11.632;2022-07-24T00:08:58;96339.50;;;20.99
61595;BMP280;47397;48.194;11.632;2022-07-24T00:09:59;96349.75;;;21.01
61595;BMP280;47397;48.194;11.632;2022-07-24T00:10:59;96352.28;;;20.86
61595;BMP280;47397;48.194;11.632;2022-07-24T00:12:00;96347.53;;;20.79
61595;BMP280;47397;48.194;11.632;2022-07-24T00:13:00;96345.50;;;20.70
61595;BMP280;47397;48.194;11.632;2022-07-24T00:14:02;96349.88;;;20.83
61595;BMP280;47397;48.194;11.632;2022-07-24T00:15:03;96343.81;;;20.84
61595;BMP280;47397;48.194;11.632;2022-07-24T00:16:05;96344.44;;;20.88
61595;BMP280;47397;48.194;11.632;2022-07-24T00:17:05;96345.03;;;20.93
61595;BMP280;47397;48.194;11.632;2022-07-24T00:18:06;96343.34;;;20.92
61595;BMP280;47397;48.194;11.632;2022-07-24T00:19:06;96341.31;;;20.83
61595;BMP280;47397;48.194;11.632;2022-07-24T00:20:08;96341.16;;;21.00
61595;BMP280;47397;48.194;11.632;2022-07-24T00:21:08;96342.44;;;20.93
61595;BMP280;47397;48.194;11.632;2022-07-24T00:22:09;96338.09;;;20.94
61595;BMP280;47397;48.194;11.632;2022-07-24T00:23:09;96341.91;;;21.02
61595;BMP280;47397;48.194;11.632;2022-07-24T00:24:10;96344.81;;;20.82
61595;BMP280;47397;48.194;11.632;2022-07-24T00:25:10;96338.47;;;20.87
61595;BMP280;47397;48.194;11.632;2022-07-24T00:26:11;96345.03;;;20.93
61595;BMP280;47397;48.194;11.632;2022-07-24T00:27:12;96341.25;;;20.99
61595;BMP280;47397;48.194;11.632;2022-07-24T00:28:12;96347.44;;;21.10
61595;BMP280;47397;48.194;11.632;2022-07-24T00:29:14;96341.81;;;21.18
61595;BMP280;47397;48.194;11.632;2022-07-24T00:30:15;96339.22;;;21.18
61595;BMP280;47397;48.194;11.632;2022-07-24T00:31:15;96336.41;;;21.22
61595;BMP280;47397;48.194;11.632;2022-07-24T00:32:16;96337.56;;;21.17
61595;BMP280;47397;48.194;11.632;2022-07-24T00:33:16;96342.28;;;21.10
61595;BMP280;47397;48.194;11.632;2022-07-24T00:34:17;96342.09;;;21.13
61595;BMP280;47397;48.194;11.632;2022-07-24T00:35:17;96344.38;;;21.04
61595;BMP280;47397;48.194;11.632;2022-07-24T00:36:18;96338.22;;;21.06
61595;BMP280;47397;48.194;11.632;2022-07-24T00:37:18;96347.06;;;21.02
61595;BMP280;47397;48.194;11.632;2022-07-24T00:38:19;96346.88;;;21.05
61595;BMP280;47397;48.194;11.632;2022-07-24T00:39:19;96342.91;;;21.00
61595;BMP280;47397;48.194;11.632;2022-07-24T00:40:20;96337.19;;;20.95
61595;BMP280;47397;48.194;11.632;2022-07-24T00:41:20;96337.81;;;20.98
61595;BMP280;47397;48.194;11.632;2022-07-24T00:42:21;96332.94;;;20.94
61595;BMP280;47397;48.194;11.632;2022-07-24T00:43:21;96339.56;;;20.98
61595;BMP280;47397;48.194;11.632;2022-07-24T00:44:23;96334.97;;;21.03
61595;BMP280;47397;48.194;11.632;2022-07-24T00:45:23;96335.25;;;20.98
61595;BMP280;47397;48.194;11.632;2022-07-24T00:46:24;96335.34;;;20.97
61595;BMP280;47397;48.194;11.632;2022-07-24T00:47:24;96338.75;;;20.97
61595;BMP280;47397;48.194;11.632;2022-07-24T00:48:25;96333.94;;;20.91
61595;BMP280;47397;48.194;11.632;2022-07-24T00:49:25;96337.47;;;20.74
61595;BMP280;47397;48.194;11.632;2022-07-24T00:50:26;96336.16;;;20.67
61595;BMP280;47397;48.194;11.632;2022-07-24T00:51:27;96335.34;;;20.67
61595;BMP280;47397;48.194;11.632;2022-07-24T00:52:27;96344.53;;;20.56
61595;BMP280;47397;48.194;11.632;2022-07-24T00:53:29;96343.78;;;20.54
61595;BMP280;47397;48.194;11.632;2022-07-24T00:54:30;96339.09;;;20.61
61595;BMP280;47397;48.194;11.632;2022-07-24T00:55:32;96340.78;;;20.76
61595;BMP280;47397;48.194;11.632;2022-07-24T00:56:33;96336.47;;;20.77
61595;BMP280;47397;48.194;11.632;2022-07-24T00:57:34;96338.03;;;20.79
61595;BMP280;47397;48.194;11.632;2022-07-24T00:58:34;96328.78;;;20.91
61595;BMP280;47397;48.194;11.632;2022-07-24T00:59:36;96335.78;;;20.89
61595;BMP280;47397;48.194;11.632;2022-07-24T01:00:37;96330.97;;;20.83
61595;BMP280;47397;48.194;11.632;2022-07-24T01:01:39;96332.00;;;20.95
61595;BMP280;47397;48.194;11.632;2022-07-24T01:02:40;96333.75;;;20.94
61595;BMP280;47397;48.194;11.632;2022-07-24T01:03:41;96334.16;;;20.72
61595;BMP280;47397;48.194;11.632;2022-07-24T01:04:41;96333.88;;;20.77
61595;BMP280;47397;48.194;11.632;2022-07-24T01:05:42;96340.31;;;20.70
61595;BMP280;47397;48.194;11.632;2022-07-24T01:06:42;96338.66;;;20.69
61595;BMP280;47397;48.194;11.632;2022-07-24T01:07:43;96338.13;;;20.78
61595;BMP280;47397;48.194;11.632;2022-07-24T01:08:44;96346.97;;;20.74
61595;BMP280;47397;48.194;11.632;2022-07-24T01:09:45;96346.47;;;20.83
61595;BMP280;47397;48.194;11.632;2022-07-24T01:10:46;96345.84;;;20.94
61595;BMP280;47397;48.194;11.632;2022-07-24T01:11:47;96344.09;;;20.94
61595;BMP280;47397;48.194;11.632;2022-07-24T01:12:48;96336.06;;;20.84
61595;BMP280;47397;48.194;11.632;2022-07-24T01:13:49;96339.03;;;20.77
61595;BMP280;47397;48.194;11.632;2022-07-24T01:14:51;96343.81;;;20.84
61595;BMP280;47397;48.194;11.632;2022-07-24T01:15:52;96336.25;;;20.66
61595;BMP280;47397;48.194;11.632;2022-07-24T01:16:52;96339.56;;;20.68
61595;BMP280;47397;48.194;11.632;2022-07-24T01:17:52;96339.75;;;20.65
61595;BMP280;47397;48.194;11.632;2022-07-24T01:18:53;96340.88;;;20.75
61595;BMP280;47397;48.194;11.632;2022-07-24T01:19:53;96344.13;;;20.78
61595;BMP280;47397;48.194;11.632;2022-07-24T01:20:55;96343.06;;;20.82
61595;BMP280;47397;48.194;11.632;2022-07-24T01:21:56;96333.28;;;20.87
61595;BMP280;47397;48.194;11.632;2022-07-24T01:22:56;96338.38;;;20.89
61595;BMP280;47397;48.194;11.632;2022-07-24T01:23:56;96336.53;;;20.91
61595;BMP280;47397;48.194;11.632;2022-07-24T01:24:57;96336.53;;;21.05
61595;BMP280;47397;48.194;11.632;2022-07-24T01:25:57;96337.28;;;21.07
61595;BMP280;47397;48.194;11.632;2022-07-24T01:26:58;96340.59;;;20.95
61595;BMP280;47397;48.194;11.632;2022-07-24T01:27:58;96337.88;;;20.82
61595;BMP280;47397;48.194;11.632;2022-07-24T01:28:59;96335.31;;;20.82
61595;BMP280;47397;48.194;11.632;2022-07-24T01:29:59;96340.31;;;20.70
61595;BMP280;47397;48.194;11.632;2022-07-24T01:31:00;96334.28;;;20.55
61595;BMP280;47397;48.194;11.632;2022-07-24T01:32:00;96335.47;;;20.49
61595;BMP280;47397;48.194;11.632;2022-07-24T01:33:02;96340.06;;;20.44
61595;BMP280;47397;48.194;11.632;2022-07-24T01:34:03;96341.34;;;20.36
61595;BMP280;47397;48.194;11.632;2022-07-24T01:35:04;96335.69;;;20.29
61595;BMP280;47397;48.194;11.632;2022-07-24T01:36:07;96340.94;;;20.27
61595;BMP280;47397;48.194;11.632;2022-07-24T01:37:08;96337.44;;;20.28
61595;BMP280;47397;48.194;11.632;2022-07-24T01:38:09;96338.22;;;20.46
61595;BMP280;47397;48.194;11.632;2022-07-24T01:39:10;96340.66;;;20.64
61595;BMP280;47397;48.194;11.632;2022-07-24T01:40:11;96341.03;;;20.57
61595;BMP280;47397;48.194;11.632;2022-07-24T01:41:11;96338.09;;;20.64
61595;BMP280;47397;48.194;11.632;2022-07-24T01:42:12;96339.78;;;20.49
61595;BMP280;47397;48.194;11.632;2022-07-24T01:43:13;96342.63;;;20.44
61595;BMP280;47397;48.194;11.632;2022-07-24T01:44:13;96338.53;;;20.40
61595;BMP280;47397;48.194;11.632;2022-07-24T01:45:14;96341.16;;;20.39
61595;BMP280;47397;48.194;11.632;2022-07-24T01:46:14;96337.63;;;20.57
61595;BMP280;47397;48.194;11.632;2022-07-24T01:47:15;96342.34;;;20.65
61595;BMP280;47397;48.194;11.632;2022-07-24T01:48:15;96336.16;;;20.67
61595;BMP280;47397;48.194;11.632;2022-07-24T01:49:16;96332.56;;;20.70
61595;BMP280;47397;48.194;11.632;2022-07-24T01:50:16;96328.16;;;20.72
61595;BMP280;47397;48.194;11.632;2022-07-24T01:51:18;96327.22;;;20.73
61595;BMP280;47397;48.194;11.632;2022-07-24T01:52:19;96329.63;;;20.76
61595;BMP280;47397;48.194;11.632;2022-07-24T01:53:19;96332.56;;;20.70
61595;BMP280;47397;48.194;11.632;2022-07-24T01:54:20;96336.22;;;20.81
61595;BMP280;47397;48.194;11.632;2022-07-24T01:55:20;96329.13;;;20.55
61595;BMP280;47397;48.194;11.632;2022-07-24T01:56:21;96325.53;;;20.57
61595;BMP280;47397;48.194;11.632;2022-07-24T01:57:21;96330.16;;;20.67
61595;BMP280;47397;48.194;11.632;2022-07-24T01:58:22;96324.06;;;20.68
61595;BMP280;47397;48.194;11.632;2022-07-24T01:59:22;96328.97;;;20.72
61595;BMP280;47397;48.194;11.632;2022-07-24T02:00:23;96324.78;;;20.55
61595;BMP280;47397;48.194;11.632;2022-07-24T02:01:24;96326.50;;;20.39
61595;BMP280;47397;48.194;11.632;2022-07-24T02:02:25;96329.72;;;20.44
61595;BMP280;47397;48.194;11.632;2022-07-24T02:03:25;96325.19;;;20.64
61595;BMP280;47397;48.194;11.632;2022-07-24T02:04:25;96321.66;;;20.65
61595;BMP280;47397;48.194;11.632;2022-07-24T02:05:26;96321.31;;;20.71
61595;BMP280;47397;48.194;11.632;2022-07-24T02:06:28;96325.25;;;20.62
61595;BMP280;47397;48.194;11.632;2022-07-24T02:07:28;96322.56;;;20.49
61595;BMP280;47397;48.194;11.632;2022-07-24T02:08:29;96326.38;;;20.42
61595;BMP280;47397;48.194;11.632;2022-07-24T02:09:29;96323.69;;;20.44
61595;BMP280;47397;48.194;11.632;2022-07-24T02:10:30;96322.34;;;20.37
61595;BMP280;47397;48.194;11.632;2022-07-24T02:11:30;96319.19;;;20.32
61595;BMP280;47397;48.194;11.632;2022-07-24T02:12:30;96325.78;;;20.37
61595;BMP280;47397;48.194;11.632;2022-07-24T02:13:31;96327.69;;;20.34
61595;BMP280;47397;48.194;11.632;2022-07-24T02:14:31;96317.63;;;20.29
61595;BMP280;47397;48.194;11.632;2022-07-24T02:15:32;96319.88;;;20.19
61595;BMP280;47397;48.194;11.632;2022-07-24T02:16:32;96322.28;;;20.22
61595;BMP280;47397;48.194;11.632;2022-07-24T02:17:33;96323.34;;;20.34
61595;BMP280;47397;48.194;11.632;2022-07-24T02:18:33;96313.38;;;20.44
61595;BMP280;47397;48.194;11.632;2022-07-24T02:19:34;96316.13;;;20.41
61595;BMP280;47397;48.194;11.632;2022-07-24T02:20:34;96323.03;;;20.40
61595;BMP280;47397;48.194;11.632;2022-07-24T02:21:36;96317.22;;;20.52
61595;BMP280;47397;48.194;11.632;2022-07-24T02:22:37;96321.22;;;20.42
61595;BMP280;47397;48.194;11.632;2022-07-24T02:23:37;96316.72;;;20.46
61595;BMP280;47397;48.194;11.632;2022-07-24T02:24:37;96316.38;;;20.52
61595;BMP280;47397;48.194;11.632;2022-07-24T02:25:38;96315.22;;;20.42
61595;BMP280;47397;48.194;11.632;2022-07-24T02:26:38;96315.97;;;20.44
61595;BMP280;47397;48.194;11.632;2022-07-24T02:27:39;96311.31;;;20.19
61595;BMP280;47397;48.194;11.632;2022-07-24T02:28:39;96309.34;;;20.38
61595;BMP280;47397;48.194;11.632;2022-07-24T02:29:40;96319.28;;;20.30
61595;BMP280;47397;48.194;11.632;2022-07-24T02:30:41;96314.97;;;20.15
61595;BMP280;47397;48.194;11.632;2022-07-24T02:31:41;96306.75;;;20.08
61595;BMP280;47397;48.194;11.632;2022-07-24T02:32:42;96304.00;;;20.11
61595;BMP280;47397;48.194;11.632;2022-07-24T02:33:42;96315.56;;;20.20
61595;BMP280;47397;48.194;11.632;2022-07-24T02:34:43;96311.81;;;20.10
61595;BMP280;47397;48.194;11.632;2022-07-24T02:35:43;96312.97;;;20.20
61595;BMP280;47397;48.194;11.632;2022-07-24T02:36:45;96312.88;;;20.21
61595;BMP280;47397;48.194;11.632;2022-07-24T02:37:46;96321.03;;;20.29
61595;BMP280;47397;48.194;11.632;2022-07-24T02:38:46;96319.03;;;20.35
61595;BMP280;47397;48.194;11.632;2022-07-24T02:39:47;96317.69;;;20.43
61595;BMP280;47397;48.194;11.632;2022-07-24T02:40:47;96309.56;;;20.51
61595;BMP280;47397;48.194;11.632;2022-07-24T02:41:48;96312.22;;;20.49
61595;BMP280;47397;48.194;11.632;2022-07-24T02:42:49;96307.91;;;20.18
61595;BMP280;47397;48.194;11.632;2022-07-24T02:43:49;96312.72;;;20.24
61595;BMP280;47397;48.194;11.632;2022-07-24T02:44:50;96306.06;;;20.05
61595;BMP280;47397;48.194;11.632;2022-07-24T02:45:50;96310.91;;;20.11
61595;BMP280;47397;48.194;11.632;2022-07-24T02:46:51;96313.22;;;19.99
61595;BMP280;47397;48.194;11.632;2022-07-24T02:47:53;96313.97;;;19.86
61595;BMP280;47397;48.194;11.632;2022-07-24T02:48:53;96313.97;;;19.86
61595;BMP280;47397;48.194;11.632;2022-07-24T02:49:54;96311.72;;;19.95
61595;BMP280;47397;48.194;11.632;2022-07-24T02:50:54;96315.88;;;19.98
61595;BMP280;47397;48.194;11.632;2022-07-24T02:51:56;96314.13;;;19.98
61595;BMP280;47397;48.194;11.632;2022-07-24T02:52:57;96320.38;;;19.94
61595;BMP280;47397;48.194;11.632;2022-07-24T02:53:57;96313.72;;;19.90
61595;BMP280;47397;48.194;11.632;2022-07-24T02:54:58;96316.88;;;19.95
61595;BMP280;47397;48.194;11.632;2022-07-24T02:55:58;96316.38;;;19.89
61595;BMP280;47397;48.194;11.632;2022-07-24T02:56:59;96314.72;;;19.88
61595;BMP280;47397;48.194;11.632;2022-07-24T02:57:59;96315.31;;;19.77
61595;BMP280;47397;48.194;11.632;2022-07-24T02:59:00;96325.03;;;19.88
61595;BMP280;47397;48.194;11.632;2022-07-24T03:00:00;96319.97;;;19.86
61595;BMP280;47397;48.194;11.632;2022-07-24T03:01:01;96325.78;;;20.06
61595;BMP280;47397;48.194;11.632;2022-07-24T03:02:02;96324.22;;;19.87
61595;BMP280;47397;48.194;11.632;2022-07-24T03:03:02;96321.56;;;19.73
61595;BMP280;47397;48.194;11.632;2022-07-24T03:04:03;96316.34;;;19.57
61595;BMP280;47397;48.194;11.632;2022-07-24T03:05:05;96320.06;;;19.52
61595;BMP280;47397;48.194;11.632;2022-07-24T03:06:05;96318.63;;;19.46
61595;BMP280;47397;48.194;11.632;2022-07-24T03:07:07;96317.22;;;19.41
61595;BMP280;47397;48.194;11.632;2022-07-24T03:08:08;96322.28;;;19.42
61595;BMP280;47397;48.194;11.632;2022-07-24T03:09:08;96323.47;;;19.52
61595;BMP280;47397;48.194;11.632;2022-07-24T03:10:10;96322.75;;;19.66
61595;BMP280;47397;48.194;11.632;2022-07-24T03:11:11;96328.38;;;19.74
61595;BMP280;47397;48.194;11.632;2022-07-24T03:12:11;96323.22;;;19.74
61595;BMP280;47397;48.194;11.632;2022-07-24T03:13:12;96324.28;;;19.70
61595;BMP280;47397;48.194;11.632;2022-07-24T03:14:12;96321.38;;;19.76
61595;BMP280;47397;48.194;11.632;2022-07-24T03:15:13;96321.31;;;19.78
61595;BMP280;47397;48.194;11.632;2022-07-24T03:16:14;96325.03;;;19.72
61595;BMP280;47397;48.194;11.632;2022-07-24T03:17:14;96322.69;;;19.67
61595;BMP280;47397;48.194;11.632;2022-07-24T03:18:15;96322.63;;;19.52
61595;BMP280;47397;48.194;11.632;2022-07-24T03:19:15;96323.53;;;19.35
61595;BMP280;47397;48.194;11.632;2022-07-24T03:20:15;96325.88;;;19.22
61595;BMP280;47397;48.194;11.632;2022-07-24T03:21:16;96333.19;;;19.47
61595;BMP280;47397;48.194;11.632;2022-07-24T03:22:18;96331.59;;;19.45
61595;BMP280;47397;48.194;11.632;2022-07-24T03:23:18;96326.53;;;19.43
61595;BMP280;47397;48.194;11.632;2022-07-24T03:24:19;96328.78;;;19.49
61595;BMP280;47397;48.194;11.632;2022-07-24T03:25:20;96328.34;;;19.58
61595;BMP280;47397;48.194;11.632;2022-07-24T03:26:20;96324.78;;;19.44
61595;BMP280;47397;48.194;11.632;2022-07-24T03:27:21;96333.13;;;19.49
61595;BMP280;47397;48.194;11.632;2022-07-24T03:28:21;96321.53;;;19.40
61595;BMP280;47397;48.194;11.632;2022-07-24T03:29:22;96323.72;;;19.30
61595;BMP280;47397;48.194;11.632;2022-07-24T03:30:22;96320.19;;;19.33
61595;BMP280;47397;48.194;11.632;2022-07-24T03:31:23;96316.88;;;19.47
61595;BMP280;47397;48.194;11.632;2022-07-24T03:32:23;96321.53;;;19.40
61595;BMP280;47397;48.194;11.632;2022-07-24T03:33:24;96314.47;;;19.44
61595;BMP280;47397;48.194;11.632;2022-07-24T03:34:24;96320.22;;;19.49
61595;BMP280;47397;48.194;11.632;2022-07-24T03:35:24;96322.97;;;19.46
61595;BMP280;47397;48.194;11.632;2022-07-24T03:36:25;96333.75;;;19.36
61595;BMP280;47397;48.194;11.632;2022-07-24T03:37:27;96329.28;;;19.40
61595;BMP280;47397;48.194;11.632;2022-07-24T03:38:27;96323.03;;;19.44
61595;BMP280;47397;48.194;11.632;2022-07-24T03:39:28;96316.88;;;19.47
61595;BMP280;47397;48.194;11.632;2022-07-24T03:40:28;96322.06;;;19.29
61595;BMP280;47397;48.194;11.632;2022-07-24T03:41:29;96319.63;;;19.11
61595;BMP280;47397;48.194;11.632;2022-07-24T03:42:29;96321.00;;;19.00
61595;BMP280;47397;48.194;11.632;2022-07-24T03:43:30;96321.72;;;19.20
61595;BMP280;47397;48.194;11.632;2022-07-24T03:44:30;96321.63;;;19.21
61595;BMP280;47397;48.194;11.632;2022-07-24T03:45:31;96324.78;;;19.11
61595;BMP280;47397;48.194;11.632;2022-07-24T03:46:31;96318.38;;;19.18
61595;BMP280;47397;48.194;11.632;2022-07-24T03:47:32;96329.38;;;19.21
61595;BMP280;47397;48.194;11.632;2022-07-24T03:48:32;96326.56;;;19.26
61595;BMP280;47397;48.194;11.632;2022-07-24T03:49:33;96326.31;;;18.97
61595;BMP280;47397;48.194;11.632;2022-07-24T03:50:33;96327.41;;;18.92
61595;BMP280;47397;48.194;11.632;2022-07-24T03:51:33;96328.56;;;18.86
61595;BMP280;47397;48.194;11.632;2022-07-24T03:52:35;96330.75;;;18.77
61595;BMP280;47397;48.194;11.632;2022-07-24T03:53:36;96328.56;;;18.69
61595;BMP280;47397;48.194;11.632;2022-07-24T03:54:36;96329.19;;;18.74
61595;BMP280;47397;48.194;11.632;2022-07-24T03:55:37;96323.03;;;18.77
61595;BMP280;47397;48.194;11.632;2022-07-24T03:56:37;96318.50;;;18.82
61595;BMP280;47397;48.194;11.632;2022-07-24T03:57:38;96326.22;;;18.64
61595;BMP280;47397;48.194;11.632;2022-07-24T03:58:38;96323.22;;;18.55
61595;BMP280;47397;48.194;11.632;2022-07-24T03:59:38;96322.19;;;18.59
61595;BMP280;47397;48.194;11.632;2022-07-24T04:00:39;96324.72;;;18.78
61595;BMP280;47397;48.194;11.632;2022-07-24T04:01:39;96320.31;;;18.97
61595;BMP280;47397;48.194;11.632;2022-07-24T04:02:40;96325.91;;;18.88
61595;BMP280;47397;48.194;11.632;2022-07-24T04:03:41;96332.41;;;18.95
61595;BMP280;47397;48.194;11.632;2022-07-24T04:04:41;96328.50;;;19.05
61595;BMP280;47397;48.194;11.632;2022-07-24T04:05:42;96337.44;;;18.98
61595;BMP280;47397;48.194;11.632;2022-07-24T04:06:42;96331.75;;;18.91
61595;BMP280;47397;48.194;11.632;2022-07-24T04:07:44;96336.97;;;19.07
61595;BMP280;47397;48.194;11.632;2022-07-24T04:08:44;96331.66;;;19.10
61595;BMP280;47397;48.194;11.632;2022-07-24T04:09:45;96337.03;;;18.88
61595;BMP280;47397;48.194;11.632;2022-07-24T04:10:45;96329.34;;;18.71
61595;BMP280;47397;48.194;11.632;2022-07-24T04:11:46;96342.50;;;18.65
61595;BMP280;47397;48.194;11.632;2022-07-24T04:12:46;96345.31;;;18.78
61595;BMP280;47397;48.194;11.632;2022-07-24T04:13:46;96337.97;;;18.87
61595;BMP280;47397;48.194;11.632;2022-07-24T04:14:47;96342.78;;;18.93
61595;BMP280;47397;48.194;11.632;2022-07-24T04:15:47;96338.88;;;19.03
61595;BMP280;47397;48.194;11.632;2022-07-24T04:16:48;96342.66;;;19.14
61595;BMP280;47397;48.194;11.632;2022-07-24T04:17:48;96345.63;;;19.06
61595;BMP280;47397;48.194;11.632;2022-07-24T04:18:48;96346.81;;;19.16
61595;BMP280;47397;48.194;11.632;2022-07-24T04:19:49;96353.28;;;19.08
61595;BMP280;47397;48.194;11.632;2022-07-24T04:20:50;96352.19;;;19.12
61595;BMP280;47397;48.194;11.632;2022-07-24T04:21:50;96346.91;;;19.15
61595;BMP280;47397;48.194;11.632;2022-07-24T04:22:52;96360.91;;;18.92
61595;BMP280;47397;48.194;11.632;2022-07-24T04:23:52;96352.81;;;18.82
61595;BMP280;47397;48.194;11.632;2022-07-24T04:24:53;96355.97;;;18.87
61595;BMP280;47397;48.194;11.632;2022-07-24T04:25:53;96365.22;;;18.91
61595;BMP280;47397;48.194;11.632;2022-07-24T04:26:53;96361.22;;;18.86
61595;BMP280;47397;48.194;11.632;2022-07-24T04:27:54;96366.06;;;18.92
61595;BMP280;47397;48.194;11.632;2022-07-24T04:28:54;96357.50;;;19.09
61595;BMP280;47397;48.194;11.632;2022-07-24T04:29:55;96364.47;;;18.89
61595;BMP280;47397;48.194;11.632;2022-07-24T04:30:55;96365.31;;;18.90
61595;BMP280;47397;48.194;11.632;2022-07-24T04:31:55;96357.00;;;19.02
61595;BMP280;47397;48.194;11.632;2022-07-24T04:32:56;96362.19;;;18.83
61595;BMP280;47397;48.194;11.632;2022-07-24T04:33:57;96358.34;;;18.92
61595;BMP280;47397;48.194;11.632;2022-07-24T04:34:58;96358.56;;;18.87
61595;BMP280;47397;48.194;11.632;2022-07-24T04:35:58;96359.25;;;18.73
61595;BMP280;47397;48.194;11.632;2022-07-24T04:36:58;96362.34;;;18.80
61595;BMP280;47397;48.194;11.632;2022-07-24T04:38:00;96365.75;;;18.81
61595;BMP280;47397;48.194;11.632;2022-07-24T04:39:01;96366.91;;;18.75
61595;BMP280;47397;48.194;11.632;2022-07-24T04:40:01;96370.31;;;18.76
61595;BMP280;47397;48.194;11.632;2022-07-24T04:41:02;96363.72;;;18.70
61595;BMP280;47397;48.194;11.632;2022-07-24T04:42:03;96364.69;;;18.67
61595;BMP280;47397;48.194;11.632;2022-07-24T04:43:03;96364.94;;;18.63
61595;BMP280;47397;48.194;11.632;2022-07-24T04:44:04;96357.31;;;18.60
61595;BMP280;47397;48.194;11.632;2022-07-24T04:45:06;96356.97;;;18.85
61595;BMP280;47397;48.194;11.632;2022-07-24T04:46:06;96355.47;;;18.98
61595;BMP280;47397;48.194;11.632;2022-07-24T04:47:07;96360.00;;;18.93
61595;BMP280;47397;48.194;11.632;2022-07-24T04:48:07;96354.41;;;19.02
61595;BMP280;47397;48.194;11.632;2022-07-24T04:49:08;96355.84;;;19.08
61595;BMP280;47397;48.194;11.632;2022-07-24T04:50:08;96352.34;;;19.09
61595;BMP280;47397;48.194;11.632;2022-07-24T04:51:09;96364.56;;;19.05
61595;BMP280;47397;48.194;11.632;2022-07-24T04:52:09;96354.56;;;18.99
61595;BMP280;47397;48.194;11.632;2022-07-24T04:53:11;96356.69;;;19.08
61595;BMP280;47397;48.194;11.632;2022-07-24T04:54:12;96356.59;;;18.92
61595;BMP280;47397;48.194;11.632;2022-07-24T04:55:12;96355.09;;;19.05
61595;BMP280;47397;48.194;11.632;2022-07-24T04:56:13;96363.25;;;19.14
61595;BMP280;47397;48.194;11.632;2022-07-24T04:57:13;96359.09;;;19.11
61595;BMP280;47397;48.194;11.632;2022-07-24T04:58:13;96367.59;;;19.13
61595;BMP280;47397;48.194;11.632;2022-07-24T04:59:14;96361.16;;;19.04
61595;BMP280;47397;48.194;11.632;2022-07-24T05:00:15;96364.56;;;19.05
61595;BMP280;47397;48.194;11.632;2022-07-24T05:01:16;96365.31;;;19.07
61595;BMP280;47397;48.194;11.632;2022-07-24T05:02:16;96365.22;;;18.91
61595;BMP280;47397;48.194;11.632;2022-07-24T05:03:17;96374.16;;;18.84
61595;BMP280;47397;48.194;11.632;2022-07-24T05:04:17;96369.53;;;18.73
61595;BMP280;47397;48.194;11.632;2022-07-24T05:05:18;96373.94;;;18.53
61595;BMP280;47397;48.194;11.632;2022-07-24T05:06:18;96371.16;;;18.57
61595;BMP280;47397;48.194;11.632;2022-07-24T05:07:19;96373.03;;;18.72
61595;BMP280;47397;48.194;11.632;2022-07-24T05:08:20;96380.69;;;18.74
61595;BMP280;47397;48.194;11.632;2022-07-24T05:09:21;96376.06;;;18.81
61595;BMP280;47397;48.194;11.632;2022-07-24T05:10:21;96372.81;;;18.94
61595;BMP280;47397;48.194;11.632;2022-07-24T05:11:22;96373.81;;;19.09
61595;BMP280;47397;48.194;11.632;2022-07-24T05:12:22;96375.84;;;19.02
61595;BMP280;47397;48.194;11.632;2022-07-24T05:13:23;96375.19;;;18.99
61595;BMP280;47397;48.194;11.632;2022-07-24T05:14:24;96379.78;;;19.10
61595;BMP280;47397;48.194;11.632;2022-07-24T05:15:24;96379.88;;;19.08
61595;BMP280;47397;48.194;11.632;2022-07-24T05:16:25;96375.84;;;19.20
61595;BMP280;47397;48.194;11.632;2022-07-24T05:17:25;96378.03;;;19.27
61595;BMP280;47397;48.194;11.632;2022-07-24T05:18:26;96383.09;;;19.29
61595;BMP280;47397;48.194;11.632;2022-07-24T05:19:26;96378.34;;;19.39
61595;BMP280;47397;48.194;11.632;2022-07-24T05:20:27;96381.56;;;19.59
61595;BMP280;47397;48.194;11.632;2022-07-24T05:21:27;96374.56;;;19.79
61595;BMP280;47397;48.194;11.632;2022-07-24T05:22:27;96375.16;;;19.99
61595;BMP280;47397;48.194;11.632;2022-07-24T05:23:29;96378.31;;;20.05
61595;BMP280;47397;48.194;11.632;2022-07-24T05:24:30;96379.31;;;20.02
61595;BMP280;47397;48.194;11.632;2022-07-24T05:25:30;96379.72;;;19.94
61595;BMP280;47397;48.194;11.632;2022-07-24T05:26:31;96376.66;;;20.04
61595;BMP280;47397;48.194;11.632;2022-07-24T05:27:31;96382.22;;;19.96
61595;BMP280;47397;48.194;11.632;2022-07-24T05:28:32;96381.22;;;19.98
61595;BMP280;47397;48.194;11.632;2022-07-24T05:29:32;96378.56;;;19.84
61595;BMP280;47397;48.194;11.632;2022-07-24T05:30:33;96380.22;;;19.85
61595;BMP280;47397;48.194;11.632;2022-07-24T05:31:34;96380.31;;;19.99
61595;BMP280;47397;48.194;11.632;2022-07-24T05:32:34;96381.50;;;20.10
61595;BMP280;47397;48.194;11.632;2022-07-24T05:33:35;96378.47;;;20.02
61595;BMP280;47397;48.194;11.632;2022-07-24T05:34:35;96381.22;;;19.98
61595;BMP280;47397;48.194;11.632;2022-07-24T05:35:36;96379.41;;;20.01
61595;BMP280;47397;48.194;11.632;2022-07-24T05:36:36;96376.97;;;19.97
61595;BMP280;47397;48.194;11.632;2022-07-24T05:37:37;96382.56;;;20.06
61595;BMP280;47397;48.194;11.632;2022-07-24T05:38:39;96378.66;;;19.98
61595;BMP280;47397;48.194;11.632;2022-07-24T05:39:39;96380.63;;;19.93
61595;BMP280;47397;48.194;11.632;2022-07-24T05:40:39;96380.56;;;19.95
61595;BMP280;47397;48.194;11.632;2022-07-24T05:41:40;96375.81;;;20.03
61595;BMP280;47397;48.194;11.632;2022-07-24T05:42:40;96379.97;;;20.06
61595;BMP280;47397;48.194;11.632;2022-07-24T05:43:41;96382.41;;;20.09
61595;BMP280;47397;48.194;11.632;2022-07-24T05:44:41;96384.22;;;20.07